Time;durP1;ratioP1;P1;durP2;ratioP2;P2;SDS_P1;SDS_P2;PMS_P1;PMS_P2;Temp;Humidity;BMP_temperature;BMP_pressure;BME280_temperature;BME280_humidity;BME280_pressure;Samples;Min_cycle;Max_cycle;Signal;HPM_P1;HPM_P2
2022/02/04 00:24:08;;;;;;;13.95;6.80;;;7.50;95.80;;;;;;9979301;28;20085;-70
2022/02/04 00:34:13;;;;;;;9.35;6.05;;;7.50;95.90;;;;;;9972306;28;20026;-70
2022/02/04 00:39:09;;;;;;;9.27;5.32;;;7.60;95.80;;;;;;9978762;28;20035;-70
2022/02/04 00:44:01;;;;;;;11.68;6.47;;;7.60;95.80;;;;;;9967584;28;20045;-69
2022/02/04 01:30:18;;;;;;;6.85;4.13;;;8.10;95.90;;;;;;9976474;28;20129;-69
2022/02/04 01:35:09;;;;;;;7.68;4.03;;;8.10;96.10;;;;;;9968510;28;20030;-70
2022/02/04 01:39:59;;;;;;;5.57;3.60;;;8.00;95.90;;;;;;9965728;28;20112;-70
2022/02/04 01:44:51;;;;;;;7.72;3.92;;;7.90;95.90;;;;;;9977243;28;20105;-71
2022/02/04 01:49:42;;;;;;;7.38;4.03;;;7.90;95.80;;;;;;9971753;28;20633;-68
2022/02/04 01:54:33;;;;;;;5.53;3.30;;;7.90;95.80;;;;;;9952139;28;20262;-69
2022/02/04 01:59:24;;;;;;;7.57;4.32;;;7.50;95.70;;;;;;9978124;28;20073;-68
2022/02/04 02:04:15;;;;;;;9.15;4.20;;;7.90;95.70;;;;;;9953134;28;20026;-69
2022/02/04 02:09:06;;;;;;;5.93;4.03;;;7.80;95.60;;;;;;9946059;28;20043;-70
2022/02/04 02:13:56;;;;;;;7.50;3.25;;;7.80;95.70;;;;;;9966913;28;20373;-69
2022/02/04 02:49:45;;;;;;;4.25;3.08;;;8.10;95.40;;;;;;9963432;28;20133;-69
2022/02/04 03:04:55;;;;;;;4.82;3.25;;;8.20;95.20;;;;;;9943820;28;20045;-69
2022/02/04 03:09:46;;;;;;;6.60;3.42;;;8.20;95.20;;;;;;9966104;28;20288;-70
2022/02/04 03:14:37;;;;;;;6.05;4.07;;;8.20;95.20;;;;;;9967954;28;20540;-68
2022/02/04 03:19:28;;;;;;;6.38;3.95;;;8.20;95.30;;;;;;9976856;28;20026;-69
2022/02/04 03:24:22;;;;;;;4.70;3.63;;;8.00;95.30;;;;;;9949082;28;20027;-69
2022/02/04 03:29:23;;;;;;;6.15;3.97;;;8.00;95.30;;;;;;9965889;28;20042;-69
2022/02/04 03:34:14;;;;;;;6.22;3.33;;;8.00;95.20;;;;;;9971627;28;20519;-68
2022/02/04 03:39:05;;;;;;;5.32;2.90;;;8.10;95.10;;;;;;9964794;28;20035;-68
2022/02/04 03:43:56;;;;;;;4.05;2.85;;;8.00;95.10;;;;;;9984646;28;20030;-69
2022/02/04 03:48:47;;;;;;;5.38;2.75;;;8.00;95.20;;;;;;9983596;28;20034;-71
2022/02/04 03:53:37;;;;;;;4.38;2.72;;;8.00;95.20;;;;;;9949565;28;20044;-69
2022/02/04 03:58:31;;;;;;;3.55;3.00;;;8.00;95.10;;;;;;9985355;28;20082;-69
2022/02/04 04:03:22;;;;;;;4.45;2.25;;;8.00;95.10;;;;;;9961637;28;20125;-69
2022/02/04 04:08:14;;;;;;;4.03;2.70;;;8.00;95.10;;;;;;9973456;28;20053;-69
2022/02/04 04:13:06;;;;;;;4.25;2.60;;;8.00;95.20;;;;;;9969644;28;20073;-69
2022/02/04 04:17:57;;;;;;;4.68;2.97;;;8.00;95.00;;;;;;9962083;28;20101;-68
2022/02/04 04:22:49;;;;;;;5.93;2.25;;;8.00;95.00;;;;;;9963055;28;20062;-70
2022/02/04 04:27:42;;;;;;;3.80;2.65;;;7.90;94.90;;;;;;9973050;28;20421;-68
2022/02/04 04:32:33;;;;;;;5.10;2.90;;;7.90;95.10;;;;;;9978808;28;20496;-67
2022/02/04 04:37:24;;;;;;;4.10;2.25;;;7.90;95.00;;;;;;9979856;28;20033;-69
2022/02/04 04:42:18;;;;;;;5.18;2.60;;;7.90;94.90;;;;;;9976461;28;20034;-68
2022/02/04 05:28:41;;;;;;;6.68;3.20;;;7.70;94.90;;;;;;9974343;28;20571;-68
2022/02/04 05:33:32;;;;;;;9.43;4.43;;;7.70;94.90;;;;;;9980980;28;20513;-68
2022/02/04 05:38:23;;;;;;;6.25;3.40;;;7.70;94.90;;;;;;9942607;28;20038;-69
2022/02/04 05:43:21;;;;;;;7.82;3.75;;;7.60;95.00;;;;;;9966903;28;20057;-68
2022/02/04 05:48:12;;;;;;;7.75;4.15;;;7.50;95.10;;;;;;9971016;28;20050;-70
2022/02/04 05:58:18;;;;;;;7.75;3.72;;;7.40;95.20;;;;;;9973424;28;20065;-68
2022/02/04 06:23:50;;;;;;;6.47;3.03;;;7.50;95.20;;;;;;9975701;28;20149;-70
2022/02/04 06:28:41;;;;;;;8.80;4.25;;;7.50;95.30;;;;;;9979998;28;20644;-70
2022/02/04 06:33:32;;;;;;;8.50;4.40;;;7.40;95.30;;;;;;9966326;28;20188;-71
2022/02/04 06:38:23;;;;;;;7.15;4.03;;;7.50;95.40;;;;;;9967731;28;20585;-69
2022/02/04 06:43:14;;;;;;;8.35;3.55;;;7.50;95.30;;;;;;9974276;28;20014;-70
2022/02/04 06:48:08;;;;;;;8.48;4.38;;;7.50;95.40;;;;;;9970121;28;20026;-68
2022/02/04 06:52:59;;;;;;;7.78;4.22;;;7.50;95.40;;;;;;9947629;28;20070;-69
2022/02/04 06:57:50;;;;;;;5.80;2.97;;;7.50;95.30;;;;;;9973890;28;20076;-70
2022/02/04 07:02:41;;;;;;;7.45;3.97;;;7.60;95.30;;;;;;9979958;28;20045;-70
2022/02/04 07:07:34;;;;;;;4.47;2.97;;;7.60;95.30;;;;;;9956540;28;20388;-69
2022/02/04 07:22:41;;;;;;;7.63;3.97;;;7.60;95.40;;;;;;9965472;28;20042;-71
2022/02/04 07:27:34;;;;;;;7.15;3.70;;;7.70;95.30;;;;;;9947361;28;20092;-69
2022/02/04 07:32:33;;;;;;;7.32;4.35;;;7.80;95.10;;;;;;9946754;28;20455;-67
2022/02/04 07:42:35;;;;;;;6.60;3.38;;;7.70;95.30;;;;;;9978145;28;20089;-68
2022/02/04 07:47:26;;;;;;;4.95;3.58;;;7.80;95.30;;;;;;9965814;28;20093;-71
2022/02/04 07:52:17;;;;;;;7.80;3.63;;;7.80;95.30;;;;;;9940486;28;20070;-76
2022/02/04 07:57:08;;;;;;;8.70;4.20;;;7.70;95.30;;;;;;9960342;28;20493;-73
2022/02/04 08:01:59;;;;;;;5.82;3.65;;;7.80;95.40;;;;;;9951570;28;20061;-73
2022/02/04 08:06:57;;;;;;;9.43;5.18;;;7.90;95.40;;;;;;9964055;28;20076;-72
2022/02/04 08:58:40;;;;;;;5.82;3.28;;;8.60;95.30;;;;;;9947195;28;20049;-76
2022/02/04 09:08:38;;;;;;;4.65;2.78;;;8.40;95.20;;;;;;9969631;28;20030;-74
2022/02/04 09:18:51;;;;;;;4.53;2.95;;;8.30;95.30;;;;;;9950753;28;20120;-78
2022/02/04 09:23:42;;;;;;;4.97;2.80;;;8.40;95.40;;;;;;9954593;28;20019;-75
2022/02/04 09:28:35;;;;;;;5.40;3.08;;;8.50;95.30;;;;;;9957156;28;20065;-74
2022/02/04 09:33:26;;;;;;;3.60;2.33;;;8.80;95.20;;;;;;9935115;28;20058;-73
2022/02/04 09:38:17;;;;;;;3.55;1.83;;;8.90;95.10;;;;;;9969691;28;20484;-69
2022/02/04 09:43:08;;;;;;;4.97;2.55;;;9.00;95.10;;;;;;9979081;28;20077;-74
2022/02/04 09:48:05;;;;;;;3.60;3.03;;;9.00;95.10;;;;;;9972404;28;20030;-77
2022/02/04 10:24:37;;;;;;;2.47;1.60;;;9.50;94.70;;;;;;9956737;28;20031;-78
2022/02/04 10:29:28;;;;;;;3.15;1.45;;;9.60;94.60;;;;;;9955133;28;20038;-74
2022/02/04 10:34:24;;;;;;;2.67;1.38;;;9.60;94.50;;;;;;9979205;28;20037;-73
2022/02/04 10:39:58;;;;;;;1.75;1.35;;;9.70;94.40;;;;;;9971832;28;20033;-75
2022/02/04 10:49:58;;;;;;;1.42;0.98;;;9.50;94.20;;;;;;9962825;28;20038;-72
2022/02/04 11:00:06;;;;;;;0.43;0.32;;;9.50;93.80;;;;;;9983405;28;20100;-76
2022/02/04 11:31:04;;;;;;;0.88;0.43;;;9.60;92.70;;;;;;9962072;28;20507;-70
2022/02/04 11:36:12;;;;;;;;;;;9.60;92.60;;;;;;9941909;28;20027;-70
2022/02/04 11:52:05;;;;;;;0.40;0.35;;;10.20;91.90;;;;;;9972775;28;20096;-71
2022/02/04 11:56:58;;;;;;;1.67;0.77;;;10.10;91.90;;;;;;9969789;28;20485;-72
2022/02/04 12:01:49;;;;;;;1.58;0.65;;;10.10;91.70;;;;;;9976284;28;20038;-73
2022/02/04 12:06:41;;;;;;;1.45;0.50;;;10.20;91.40;;;;;;9954769;28;20091;-73
2022/02/04 12:11:40;;;;;;;0.40;0.22;;;10.00;90.90;;;;;;9959927;28;20133;-72
2022/02/04 12:16:31;;;;;;;0.38;0.28;;;9.70;90.90;;;;;;9970757;28;20021;-72
2022/02/04 12:21:22;;;;;;;1.55;1.13;;;9.70;90.80;;;;;;9975346;28;20225;-73
2022/02/04 12:26:20;;;;;;;0.95;0.50;;;9.80;90.70;;;;;;9964896;28;20134;-73
2022/02/04 12:31:15;;;;;;;1.05;0.28;;;9.90;90.70;;;;;;9958830;28;20476;-71
2022/02/04 12:36:22;;;;;;;1.87;0.40;;;10.00;90.40;;;;;;9966925;28;20294;-72
2022/02/04 12:41:28;;;;;;;1.08;0.60;;;10.10;90.20;;;;;;9961862;28;20333;-70
2022/02/04 12:46:19;;;;;;;0.95;0.40;;;10.10;90.30;;;;;;9970658;28;20041;-72
2022/02/04 12:51:10;;;;;;;0.50;0.40;;;10.00;90.00;;;;;;9963024;28;20571;-70
2022/02/04 12:56:35;;;;;;;0.32;0.30;;;10.00;90.00;;;;;;9955685;28;20026;-69
2022/02/04 13:11:45;;;;;;;0.10;0.10;;;9.60;88.90;;;;;;9975519;28;20105;-69
2022/02/04 13:16:39;;;;;;;0.52;0.25;;;9.70;89.20;;;;;;9960799;28;20125;-73
2022/02/04 13:21:36;;;;;;;1.98;0.40;;;9.70;89.20;;;;;;9945678;28;20038;-72
2022/02/04 13:26:29;;;;;;;0.63;0.17;;;9.70;89.00;;;;;;9955148;28;20121;-72
2022/02/04 13:31:22;;;;;;;0.40;0.30;;;9.70;88.90;;;;;;9965751;28;20304;-66
2022/02/04 13:36:32;;;;;;;0.30;0.30;;;9.80;88.90;;;;;;9966554;28;20106;-68
2022/02/04 13:46:45;;;;;;;0.70;0.35;;;9.80;88.80;;;;;;9960142;28;20035;-65
2022/02/04 13:51:51;;;;;;;0.35;0.30;;;9.80;88.90;;;;;;9962311;28;20053;-66
2022/02/04 13:56:48;;;;;;;0.60;0.40;;;9.90;88.40;;;;;;9957553;28;20042;-69
2022/02/04 14:01:46;;;;;;;0.47;0.30;;;10.00;88.60;;;;;;9964103;28;20041;-68
2022/02/04 14:06:38;;;;;;;0.50;0.30;;;10.10;88.40;;;;;;9966159;28;20042;-67
2022/02/04 14:11:29;;;;;;;1.13;0.47;;;10.20;88.30;;;;;;9959393;28;20038;-69
2022/02/04 14:16:21;;;;;;;2.35;0.50;;;10.20;88.40;;;;;;9967787;28;20047;-69
2022/02/04 14:21:12;;;;;;;0.35;0.30;;;10.20;88.30;;;;;;9944005;28;20173;-74
2022/02/04 14:26:18;;;;;;;0.57;0.40;;;10.20;88.30;;;;;;9959118;28;20027;-72
2022/02/04 14:31:20;;;;;;;0.93;0.40;;;10.10;88.20;;;;;;9956042;28;20451;-72
2022/02/04 14:37:01;;;;;;;1.27;0.60;;;10.10;88.20;;;;;;9960669;28;20065;-69
2022/02/04 15:02:06;;;;;;;1.20;0.50;;;10.00;88.00;;;;;;9956387;28;20506;-71
2022/02/04 15:07:00;;;;;;;1.33;0.60;;;9.70;87.70;;;;;;9972363;28;20025;-72
2022/02/04 15:11:51;;;;;;;0.85;0.70;;;10.10;87.90;;;;;;9964230;28;20544;-68
2022/02/04 15:16:44;;;;;;;1.30;0.45;;;10.10;87.90;;;;;;9964623;28;20026;-72
2022/02/04 15:21:34;;;;;;;1.15;0.55;;;10.00;87.80;;;;;;9959759;28;20019;-70
2022/02/04 15:26:28;;;;;;;0.82;0.50;;;10.00;88.20;;;;;;9965592;28;20026;-66
2022/02/04 15:36:25;;;;;;;0.40;0.40;;;9.80;88.20;;;;;;9966248;28;20031;-67
2022/02/04 15:41:17;;;;;;;0.45;0.32;;;9.80;88.30;;;;;;9975135;28;20504;-67
2022/02/04 16:06:35;;;;;;;1.25;0.70;;;9.60;88.60;;;;;;9964854;28;20049;-68
2022/02/04 16:16:24;;;;;;;1.20;0.55;;;9.60;88.80;;;;;;9955003;28;20038;-67
2022/02/04 16:21:27;;;;;;;0.55;0.50;;;9.60;89.20;;;;;;9958982;28;20034;-64
2022/02/04 16:31:20;;;;;;;0.70;0.40;;;9.50;89.50;;;;;;9961979;28;20059;-71
2022/02/04 16:36:15;;;;;;;2.47;0.60;;;11.20;90.10;;;;;;9958063;28;20385;-72
2022/02/04 16:41:09;;;;;;;1.00;0.63;;;9.50;89.80;;;;;;9969937;28;20149;-69
2022/02/04 16:46:02;;;;;;;4.20;0.95;;;9.40;90.00;;;;;;9969327;28;20039;-68
2022/02/04 16:50:52;;;;;;;0.90;0.60;;;9.40;90.10;;;;;;9980032;28;20042;-68
2022/02/04 16:55:43;;;;;;;0.60;0.52;;;9.40;90.10;;;;;;9985146;28;20495;-69
2022/02/04 17:00:34;;;;;;;1.02;0.70;;;9.30;90.20;;;;;;9967342;28;20493;-68
2022/02/04 17:05:35;;;;;;;0.63;0.40;;;9.30;90.30;;;;;;9969431;28;20022;-69
2022/02/04 17:10:31;;;;;;;0.43;0.38;;;9.40;90.40;;;;;;9970284;28;20049;-69
2022/02/04 17:15:21;;;;;;;1.08;0.43;;;9.40;90.40;;;;;;9966733;28;20023;-73
2022/02/04 17:20:13;;;;;;;1.08;0.57;;;9.40;90.70;;;;;;9979051;28;20051;-70
2022/02/04 17:25:09;;;;;;;1.73;0.77;;;9.40;90.50;;;;;;9979801;28;20090;-70
2022/02/04 17:30:00;;;;;;;;;;;9.40;90.50;;;;;;9972017;28;20049;-69
2022/02/04 17:34:50;;;;;;;1.83;0.90;;;9.40;90.50;;;;;;9978483;28;20400;-71
2022/02/04 17:39:42;;;;;;;1.60;0.98;;;9.40;90.50;;;;;;9961164;28;20030;-70
2022/02/04 17:44:33;;;;;;;2.67;1.48;;;9.40;90.50;;;;;;9956092;28;20614;-69
2022/02/04 17:49:29;;;;;;;1.20;0.82;;;9.30;90.60;;;;;;9968376;28;20504;-70
2022/02/04 17:54:48;;;;;;;5.50;1.35;;;9.30;90.60;;;;;;9960678;28;20544;-70
2022/02/04 18:05:38;;;;;;;2.15;1.10;;;9.20;90.70;;;;;;9918670;28;20130;-70
2022/02/04 18:09:57;;;;;;;2.30;1.10;;;9.10;90.80;;;;;;9962469;28;20457;-70
2022/02/04 18:14:48;;;;;;;1.15;0.90;;;9.10;90.90;;;;;;9976171;28;20038;-69
2022/02/04 18:19:40;;;;;;;0.98;0.70;;;9.20;90.90;;;;;;9974975;28;20030;-72
2022/02/04 18:24:30;;;;;;;1.73;0.80;;;9.20;90.90;;;;;;9974383;28;20124;-70
2022/02/04 18:29:21;;;;;;;2.53;1.23;;;9.20;90.90;;;;;;9981151;28;20089;-70
2022/02/04 18:34:14;;;;;;;2.08;1.00;;;9.10;91.00;;;;;;9962185;28;20071;-69
2022/02/04 18:44:11;;;;;;;2.20;1.40;;;9.10;91.10;;;;;;9973667;28;20030;-70
2022/02/04 18:49:15;;;;;;;1.65;0.95;;;9.10;91.20;;;;;;9983272;28;20161;-70
2022/02/04 18:54:29;;;;;;;0.65;0.57;;;9.10;91.40;;;;;;9953944;28;20480;-68
2022/02/04 18:59:24;;;;;;;2.05;1.00;;;9.30;91.10;;;;;;9981478;28;20034;-69
2022/02/04 19:04:20;;;;;;;1.00;0.83;;;9.50;91.00;;;;;;9943945;28;20065;-70
2022/02/04 19:09:10;;;;;;;1.08;0.70;;;9.60;90.90;;;;;;9941844;28;20082;-69
2022/02/04 19:14:14;;;;;;;0.60;0.60;;;9.60;90.90;;;;;;9977629;28;20607;-70
2022/02/04 19:19:16;;;;;;;4.60;0.80;;;9.60;90.90;;;;;;9968487;28;20466;-70
2022/02/04 19:24:11;;;;;;;1.15;0.65;;;9.60;91.00;;;;;;9961977;28;20050;-68
2022/02/04 19:29:03;;;;;;;0.77;0.70;;;9.60;91.00;;;;;;9971819;28;20135;-71
2022/02/04 19:33:53;;;;;;;0.80;0.80;;;9.60;91.00;;;;;;9951864;28;20081;-69
2022/02/04 19:38:44;;;;;;;1.45;0.73;;;9.70;91.00;;;;;;9968767;28;20030;-70
2022/02/04 19:43:36;;;;;;;0.98;0.60;;;9.70;91.00;;;;;;9960645;28;20030;-69
2022/02/04 19:48:32;;;;;;;2.97;0.82;;;9.70;91.00;;;;;;9964716;28;20034;-70
2022/02/04 19:53:43;;;;;;;0.60;0.60;;;9.70;91.00;;;;;;9966296;28;20041;-69
2022/02/04 20:29:23;;;;;;;0.70;0.70;;;9.30;91.60;;;;;;9980662;28;20045;-70
2022/02/04 20:34:13;;;;;;;1.55;0.80;;;9.20;91.70;;;;;;9971322;28;20037;-69
2022/02/04 20:39:07;;;;;;;1.55;0.70;;;9.30;91.60;;;;;;9953922;28;20022;-71
2022/02/04 20:43:57;;;;;;;1.50;0.35;;;8.30;91.40;;;;;;9975453;28;20030;-70
2022/02/04 20:48:48;;;;;;;0.52;0.35;;;6.60;92.90;;;;;;9967619;28;20452;-71
2022/02/04 20:53:40;;;;;;;1.10;0.40;;;6.00;93.70;;;;;;9979256;28;20038;-70
2022/02/04 20:58:30;;;;;;;16.88;0.82;;;6.00;93.90;;;;;;9978483;28;20033;-68
2022/02/04 21:03:23;;;;;;;2.25;1.10;;;6.10;93.50;;;;;;9981155;28;20035;-70
2022/02/04 21:18:17;;;;;;;0.60;0.50;;;6.40;93.50;;;;;;9975733;28;20041;-68
2022/02/04 21:23:10;;;;;;;0.17;0.17;;;6.50;93.40;;;;;;9977375;28;20045;-70
2022/02/04 21:28:06;;;;;;;0.52;0.40;;;6.70;93.60;;;;;;9961476;28;20144;-69
2022/02/04 21:32:59;;;;;;;0.30;0.30;;;6.70;93.60;;;;;;9984828;28;20042;-70
2022/02/04 21:37:49;;;;;;;1.60;0.55;;;6.70;93.70;;;;;;9969336;28;20034;-69
2022/02/04 21:42:40;;;;;;;0.50;0.40;;;6.80;93.80;;;;;;9976427;28;20168;-69
2022/02/04 21:47:36;;;;;;;1.92;0.68;;;6.80;93.80;;;;;;9980351;28;20030;-71
2022/02/04 21:52:27;;;;;;;3.03;0.57;;;6.80;94.20;;;;;;9982720;28;20034;-70
2022/02/04 21:57:20;;;;;;;1.30;0.70;;;6.70;93.90;;;;;;9959458;28;20749;-70
2022/02/04 22:02:13;;;;;;;0.43;0.35;;;6.70;93.90;;;;;;9942513;28;20045;-70
2022/02/04 22:07:04;;;;;;;0.55;0.52;;;6.70;93.90;;;;;;9970049;28;20022;-70
2022/02/04 22:22:05;;;;;;;0.98;0.63;;;6.80;93.80;;;;;;9976045;28;20022;-70
2022/02/04 22:26:57;;;;;;;2.08;0.98;;;6.80;93.80;;;;;;9974943;28;20023;-69
2022/02/04 22:31:48;;;;;;;2.15;1.10;;;6.80;93.80;;;;;;9973156;28;20059;-70
2022/02/04 22:42:10;;;;;;;1.63;1.00;;;6.70;93.60;;;;;;9977843;28;20417;-70
2022/02/04 22:52:12;;;;;;;2.17;1.37;;;6.50;93.60;;;;;;9968611;28;20218;-71
2022/02/04 23:01:57;;;;;;;1.95;1.33;;;6.30;93.40;;;;;;9971394;28;20554;-70
2022/02/04 23:06:49;;;;;;;1.95;1.52;;;6.10;93.30;;;;;;9975434;28;20423;-70
2022/02/04 23:11:42;;;;;;;1.55;1.10;;;6.10;93.30;;;;;;9976279;28;20034;-69
2022/02/04 23:16:40;;;;;;;2.95;1.15;;;5.90;93.20;;;;;;9952177;28;20419;-71
2022/02/04 23:21:41;;;;;;;2.10;1.10;;;5.80;93.00;;;;;;9946144;28;20109;-69
2022/02/04 23:26:41;;;;;;;3.13;1.00;;;5.80;93.00;;;;;;9966768;28;20116;-70
2022/02/04 23:51:56;;;;;;;1.83;1.73;;;5.50;92.40;;;;;;9977585;28;20046;-68
2022/02/04 23:56:47;;;;;;;2.85;1.65;;;5.50;92.40;;;;;;9975480;28;20524;-70
